createdAt,value
2019-03-29T00:00:53.049Z,99926.09
2019-03-29T00:03:25.948Z,99919.07
2019-03-29T00:05:58.730Z,99920.78
2019-03-29T00:08:31.936Z,99921.59
2019-03-29T00:11:04.719Z,99915.88
2019-03-29T00:13:37.543Z,99920.20
2019-03-29T00:16:10.392Z,99914.09
2019-03-29T00:18:43.501Z,99911.42
2019-03-29T00:21:16.297Z,99914.02
2019-03-29T00:23:49.323Z,99911.81
2019-03-29T00:26:22.166Z,99909.63
2019-03-29T00:28:55.117Z,99910.03
2019-03-29T00:31:27.898Z,99900.84
2019-03-29T00:34:01.055Z,99908.65
2019-03-29T00:36:34.379Z,99913.43
2019-03-29T00:39:08.630Z,99909.49
2019-03-29T00:41:41.687Z,99909.47
2019-03-29T00:44:14.480Z,99909.00
2019-03-29T00:46:47.404Z,99908.95
2019-03-29T00:49:20.314Z,99911.55
2019-03-29T00:51:53.098Z,99908.02
2019-03-29T00:54:25.908Z,99912.78
2019-03-29T00:56:58.686Z,99924.51
2019-03-29T00:59:31.864Z,99922.27
2019-03-29T01:02:04.667Z,99917.86
2019-03-29T01:04:37.466Z,99914.33
2019-03-29T01:07:10.436Z,99911.69
2019-03-29T01:09:43.259Z,99908.16
2019-03-29T01:12:16.146Z,99911.63
2019-03-29T01:14:48.957Z,99909.85
2019-03-29T01:17:21.828Z,99914.61
2019-03-29T01:19:55.340Z,99913.28
2019-03-29T01:22:28.963Z,99909.69
2019-03-29T01:25:02.108Z,99909.64
2019-03-29T01:27:34.915Z,99908.26
2019-03-29T01:30:08.641Z,99914.28
2019-03-29T01:32:41.952Z,99905.53
2019-03-29T01:35:14.817Z,99903.30
2019-03-29T01:37:47.549Z,99909.33
2019-03-29T01:40:20.513Z,99907.16
2019-03-29T01:42:53.301Z,99900.13
2019-03-29T01:45:26.156Z,99907.55
2019-03-29T01:47:59.033Z,99904.92
2019-03-29T01:50:32.095Z,99906.62
2019-03-29T01:53:04.911Z,99902.27
2019-03-29T01:55:37.739Z,99903.53
2019-03-29T01:58:12.813Z,99911.81
2019-03-29T02:00:45.599Z,99909.19
2019-03-29T02:03:18.489Z,99903.04
2019-03-29T02:05:53.214Z,99893.89
2019-03-29T02:08:35.739Z,99890.89
2019-03-29T02:11:00.575Z,99889.25
2019-03-29T02:13:33.399Z,99891.47
2019-03-29T02:16:06.277Z,99902.38
2019-03-29T02:18:39.866Z,99904.10
2019-03-29T02:21:12.925Z,99908.86
2019-03-29T02:23:45.697Z,99917.13
2019-03-29T02:26:18.494Z,99915.76
2019-03-29T02:28:51.829Z,99917.91
2019-03-29T02:31:26.130Z,99920.95
2019-03-29T02:33:59.359Z,99916.57
2019-03-29T02:36:32.109Z,99921.80
2019-03-29T02:39:05.264Z,99924.80
2019-03-29T02:41:38.231Z,99940.45
2019-03-29T02:44:11.394Z,99939.93
2019-03-29T02:46:44.193Z,99936.36
2019-03-29T02:49:16.966Z,99936.72
2019-03-29T02:51:49.826Z,99930.53
2019-03-29T02:54:22.662Z,99935.30
2019-03-29T02:56:55.494Z,99936.59
2019-03-29T02:59:28.270Z,99939.58
2019-03-29T03:02:01.709Z,99943.86
2019-03-29T03:04:34.549Z,99940.72
2019-03-29T03:07:07.387Z,99938.05
2019-03-29T03:09:40.191Z,99953.24
2019-03-29T03:12:12.986Z,99946.62
2019-03-29T03:14:45.793Z,99950.08
2019-03-29T03:17:18.635Z,99943.93
2019-03-29T03:19:51.797Z,99951.77
2019-03-29T03:22:24.647Z,99949.50
2019-03-29T03:24:57.447Z,99956.01
2019-03-29T03:27:30.241Z,99959.84
2019-03-29T03:30:03.527Z,99954.14
2019-03-29T03:32:36.280Z,99950.19
2019-03-29T03:35:10.493Z,99945.34
2019-03-29T03:37:43.314Z,99939.32
2019-03-29T03:40:16.959Z,99940.86
2019-03-29T03:42:50.322Z,99943.18
2019-03-29T03:45:23.114Z,99950.63
2019-03-29T03:47:56.002Z,99957.55
2019-03-29T03:50:42.478Z,99953.55
2019-03-29T03:53:15.404Z,99954.81
2019-03-29T03:55:48.113Z,99946.04
2019-03-29T03:58:23.001Z,99943.81
2019-03-29T04:00:58.214Z,99945.08
2019-03-29T04:03:31.399Z,99955.42
2019-03-29T04:06:04.421Z,99950.11
2019-03-29T04:08:37.321Z,99948.31
2019-03-29T04:11:10.162Z,99947.39
2019-03-29T04:13:43.085Z,99950.45
2019-03-29T04:16:15.890Z,99945.73
2019-03-29T04:18:48.689Z,99951.75
2019-03-29T04:21:21.483Z,99952.14
2019-03-29T04:23:54.280Z,99952.94
2019-03-29T04:26:27.059Z,99962.89
2019-03-29T04:29:04.763Z,99957.66
2019-03-29T04:31:34.423Z,99957.19
2019-03-29T04:34:07.225Z,99944.06
2019-03-29T04:36:40.149Z,99951.89
2019-03-29T04:39:13.033Z,99957.95
2019-03-29T04:41:45.922Z,99953.19
2019-03-29T04:44:18.715Z,99964.91
2019-03-29T04:46:51.621Z,99965.36
2019-03-29T04:49:24.403Z,99964.09
2019-03-29T04:51:57.275Z,99972.05
2019-03-29T04:54:30.075Z,99977.48
2019-03-29T04:57:02.836Z,99977.65
2019-03-29T04:59:35.709Z,99983.16
2019-03-29T05:02:08.507Z,99988.20
2019-03-29T05:04:43.542Z,99988.88
2019-03-29T05:07:16.429Z,99987.83
2019-03-29T05:09:49.411Z,99981.22
2019-03-29T05:12:22.281Z,99972.53
2019-03-29T05:14:55.668Z,99967.14
2019-03-29T05:17:28.539Z,99964.16
2019-03-29T05:20:01.460Z,99969.23
2019-03-29T05:22:34.354Z,99965.80
2019-03-29T05:25:07.647Z,99959.82
2019-03-29T05:27:40.799Z,99956.14
2019-03-29T05:30:13.917Z,99953.23
2019-03-29T05:32:46.702Z,99953.59
2019-03-29T05:35:19.598Z,99962.36
2019-03-29T05:37:52.490Z,99955.63
2019-03-29T05:40:34.836Z,99942.89
2019-03-29T05:42:59.881Z,99936.68
2019-03-29T05:45:32.723Z,99929.86
2019-03-29T05:48:05.677Z,99926.80
2019-03-29T05:50:38.523Z,99925.80
2019-03-29T05:53:11.509Z,99930.28
2019-03-29T05:55:44.331Z,99935.05
2019-03-29T05:58:17.209Z,99939.23
2019-03-29T06:00:50.023Z,99939.96
2019-03-29T06:03:24.107Z,99937.21
2019-03-29T06:05:56.857Z,99934.65
2019-03-29T06:08:31.155Z,99924.02
2019-03-29T06:11:05.007Z,99928.36
2019-03-29T06:13:37.939Z,99928.03
2019-03-29T06:16:10.863Z,99941.47
2019-03-29T06:18:44.037Z,99945.15
2019-03-29T06:21:16.890Z,99953.77
2019-03-29T06:23:49.709Z,99951.25
2019-03-29T06:26:22.576Z,99943.49
2019-03-29T06:28:55.451Z,99949.03
2019-03-29T06:31:28.337Z,99953.13
2019-03-29T06:34:01.264Z,99951.52
2019-03-29T06:36:36.801Z,99957.82
2019-03-29T06:39:11.359Z,99959.23
2019-03-29T06:41:44.206Z,99965.09
2019-03-29T06:44:17.074Z,99970.39
2019-03-29T06:46:50.351Z,99974.08
2019-03-29T06:49:23.368Z,99978.08
2019-03-29T06:51:56.359Z,99980.29
2019-03-29T06:54:29.199Z,99979.59
2019-03-29T06:57:04.382Z,99987.58
2019-03-29T06:59:37.692Z,99986.45
2019-03-29T07:02:10.469Z,99986.89
2019-03-29T07:04:43.348Z,99981.95
2019-03-29T07:07:16.153Z,99980.71
2019-03-29T07:09:49.025Z,99983.14
2019-03-29T07:12:21.911Z,99974.57
2019-03-29T07:14:54.764Z,99978.36
2019-03-29T07:17:27.743Z,99973.55
2019-03-29T07:20:02.681Z,99971.70
2019-03-29T07:22:35.538Z,99977.41
2019-03-29T07:25:09.463Z,99977.03
2019-03-29T07:27:45.841Z,99968.81
2019-03-29T07:30:17.513Z,99964.14
2019-03-29T07:32:50.749Z,99952.92
2019-03-29T07:35:23.862Z,99950.28
2019-03-29T07:37:56.694Z,99950.33
2019-03-29T07:40:29.693Z,99943.86
2019-03-29T07:43:02.609Z,99954.61
2019-03-29T07:45:35.545Z,99971.92
2019-03-29T07:48:10.081Z,99967.70
2019-03-29T07:50:42.925Z,99954.06
2019-03-29T07:53:16.237Z,99935.14
2019-03-29T07:55:51.910Z,99915.19
2019-03-29T07:58:25.027Z,99911.31
2019-03-29T08:01:00.688Z,99914.38
2019-03-29T08:03:33.561Z,99900.88
2019-03-29T08:06:06.409Z,99898.95
2019-03-29T08:08:40.959Z,99890.58
2019-03-29T08:11:25.528Z,99886.16
2019-03-29T08:13:48.390Z,99892.19
2019-03-29T08:16:21.834Z,99882.64
2019-03-29T08:18:54.752Z,99887.78
2019-03-29T08:21:27.545Z,99885.42
2019-03-29T08:24:00.501Z,99883.77
2019-03-29T08:26:33.423Z,99886.39
2019-03-29T08:29:06.289Z,99876.84
2019-03-29T08:31:39.186Z,99886.25
2019-03-29T08:34:12.015Z,99886.90
2019-03-29T08:36:44.906Z,99876.98
2019-03-29T08:39:27.704Z,99873.80
2019-03-29T08:41:59.905Z,99868.09
2019-03-29T08:44:27.168Z,99866.74
2019-03-29T08:47:00.218Z,99861.28
2019-03-29T08:49:33.037Z,99858.42
2019-03-29T08:52:05.862Z,99854.13
2019-03-29T08:54:38.791Z,99849.80
2019-03-29T08:57:13.099Z,99856.30
2019-03-29T08:59:45.929Z,99855.50
2019-03-29T09:02:18.918Z,99856.23
2019-03-29T09:04:52.223Z,99847.74
2019-03-29T09:07:27.946Z,99847.10
2019-03-29T09:10:00.840Z,99846.80
2019-03-29T09:12:33.751Z,99844.73
2019-03-29T09:15:06.724Z,99849.13
2019-03-29T09:17:40.793Z,99855.44
2019-03-29T09:20:13.980Z,99845.36
2019-03-29T09:22:46.872Z,99845.62
2019-03-29T09:25:21.100Z,99845.58
2019-03-29T09:27:54.213Z,99841.77
2019-03-29T09:30:26.991Z,99835.89
2019-03-29T09:32:59.943Z,99842.16
2019-03-29T09:35:32.869Z,99841.16
2019-03-29T09:38:06.820Z,99830.22
2019-03-29T09:40:39.739Z,99838.45
2019-03-29T09:43:12.611Z,99838.94
2019-03-29T09:45:45.409Z,99840.00
2019-03-29T09:48:18.220Z,99832.88
2019-03-29T09:50:53.156Z,99829.47
2019-03-29T09:53:26.083Z,99831.83
2019-03-29T09:55:59.057Z,99827.73
2019-03-29T09:58:31.972Z,99835.46
2019-03-29T10:01:04.888Z,99832.97
2019-03-29T10:03:37.756Z,99834.16
2019-03-29T10:06:11.012Z,99832.30
2019-03-29T10:08:43.866Z,99841.25
2019-03-29T10:11:16.804Z,99844.26
2019-03-29T10:13:49.697Z,99843.17
2019-03-29T10:16:25.706Z,99853.56
2019-03-29T10:18:57.053Z,99857.30
2019-03-29T10:21:29.951Z,99853.69
2019-03-29T10:24:02.868Z,99852.38
2019-03-29T10:26:35.752Z,99855.67
2019-03-29T10:29:09.105Z,99859.20
2019-03-29T10:31:45.405Z,99852.38
2019-03-29T10:34:18.455Z,99842.64
2019-03-29T10:36:51.283Z,99838.33
2019-03-29T10:39:26.301Z,99846.05
2019-03-29T10:41:58.568Z,99844.98
2019-03-29T10:44:31.396Z,99835.27
2019-03-29T10:47:04.777Z,99844.48
2019-03-29T10:49:37.619Z,99829.83
2019-03-29T10:52:10.548Z,99829.76
2019-03-29T10:54:43.407Z,99836.50
2019-03-29T10:57:16.355Z,99838.87
2019-03-29T10:59:49.268Z,99841.19
2019-03-29T11:02:22.125Z,99848.73
2019-03-29T11:04:55.073Z,99846.97
2019-03-29T11:07:27.901Z,99842.25
2019-03-29T11:10:01.271Z,99846.27
2019-03-29T11:12:34.133Z,99843.93
2019-03-29T11:15:07.677Z,99848.62
2019-03-29T11:17:40.518Z,99843.83
2019-03-29T11:20:13.354Z,99835.73
2019-03-29T11:22:46.123Z,99831.39
2019-03-29T11:25:20.519Z,99831.19
2019-03-29T11:27:53.754Z,99838.71
2019-03-29T11:30:41.219Z,99844.64
2019-03-29T11:33:01.314Z,99834.90
2019-03-29T11:35:36.141Z,99825.74
2019-03-29T11:38:08.897Z,99816.90
2019-03-29T11:40:42.597Z,99827.77
2019-03-29T11:43:26.611Z,99813.66
2019-03-29T11:45:51.767Z,99804.34
2019-03-29T11:48:24.707Z,99801.20
2019-03-29T11:50:57.556Z,99792.45
2019-03-29T11:53:30.540Z,99797.56
2019-03-29T11:56:03.490Z,99803.30
2019-03-29T11:58:36.323Z,99797.23
2019-03-29T12:01:10.714Z,99780.27
2019-03-29T12:03:43.551Z,99779.56
2019-03-29T12:06:16.831Z,99775.58
2019-03-29T12:08:49.875Z,99780.50
2019-03-29T12:11:22.892Z,99779.34
2019-03-29T12:13:56.991Z,99766.81
2019-03-29T12:16:29.881Z,99773.70
2019-03-29T12:19:02.939Z,99776.86
2019-03-29T12:21:35.868Z,99780.36
2019-03-29T12:24:08.865Z,99782.04
2019-03-29T12:26:41.749Z,99777.23
2019-03-29T12:29:14.591Z,99772.78
2019-03-29T12:31:48.043Z,99770.03
2019-03-29T12:34:21.217Z,99760.12
2019-03-29T12:36:55.112Z,99756.42
2019-03-29T12:39:28.037Z,99744.13
2019-03-29T12:42:01.513Z,99744.10
2019-03-29T12:44:36.293Z,99740.69
2019-03-29T12:47:09.141Z,99739.09
2019-03-29T12:49:43.481Z,99729.52
2019-03-29T12:52:17.053Z,99739.41
2019-03-29T12:54:50.035Z,99733.91
2019-03-29T12:57:23.042Z,99739.48
2019-03-29T12:59:56.033Z,99738.84
2019-03-29T13:02:34.487Z,99740.69
2019-03-29T13:05:07.685Z,99747.30
2019-03-29T13:07:40.496Z,99738.55
2019-03-29T13:10:14.073Z,99730.83
2019-03-29T13:12:47.056Z,99731.48
2019-03-29T13:15:19.917Z,99728.88
2019-03-29T13:17:53.015Z,99724.13
2019-03-29T13:20:26.002Z,99724.73
2019-03-29T13:22:58.909Z,99723.81
2019-03-29T13:25:32.095Z,99720.33
2019-03-29T13:28:06.085Z,99717.63
2019-03-29T13:30:38.926Z,99719.28
2019-03-29T13:33:12.105Z,99707.79
2019-03-29T13:35:44.943Z,99706.22
2019-03-29T13:38:20.447Z,99710.38
2019-03-29T13:40:52.472Z,99704.37
2019-03-29T13:43:25.771Z,99709.51
2019-03-29T13:45:58.671Z,99704.91
2019-03-29T13:48:31.831Z,99708.34
2019-03-29T13:51:04.790Z,99704.23
2019-03-29T13:53:37.717Z,99703.27
2019-03-29T13:56:11.107Z,99693.03
2019-03-29T13:58:43.879Z,99684.69
2019-03-29T14:01:20.128Z,99677.16
2019-03-29T14:03:53.161Z,99679.56
2019-03-29T14:06:26.000Z,99679.14
2019-03-29T14:08:58.914Z,99678.58
2019-03-29T14:11:31.994Z,99680.56
2019-03-29T14:14:04.910Z,99677.14
2019-03-29T14:16:37.855Z,99682.14
2019-03-29T14:19:13.127Z,99688.92
2019-03-29T14:21:46.104Z,99686.66
2019-03-29T14:24:19.001Z,99687.48
2019-03-29T14:26:52.301Z,99675.72
2019-03-29T14:29:25.175Z,99667.62
2019-03-29T14:31:58.032Z,99676.98
2019-03-29T14:34:31.042Z,99667.55
2019-03-29T14:37:04.082Z,99669.60
2019-03-29T14:39:39.648Z,99661.77
2019-03-29T14:42:12.934Z,99665.37
2019-03-29T14:44:52.251Z,99661.02
2019-03-29T14:47:21.117Z,99659.23
2019-03-29T14:49:53.940Z,99652.09
2019-03-29T14:52:28.133Z,99650.13
2019-03-29T14:55:01.080Z,99639.11
2019-03-29T14:57:33.945Z,99643.44
2019-03-29T15:00:08.226Z,99648.36
2019-03-29T15:02:41.368Z,99649.38
2019-03-29T15:05:14.579Z,99647.83
2019-03-29T15:07:47.485Z,99637.05
2019-03-29T15:10:29.074Z,99640.34
2019-03-29T15:13:02.002Z,99635.30
2019-03-29T15:15:34.782Z,99632.83
2019-03-29T15:18:07.970Z,99629.05
2019-03-29T15:20:52.603Z,99629.39
2019-03-29T15:23:15.749Z,99627.04
2019-03-29T15:25:48.536Z,99618.84
2019-03-29T15:28:21.747Z,99617.63
2019-03-29T15:30:54.585Z,99614.31
2019-03-29T15:33:27.402Z,99611.58
2019-03-29T15:36:00.215Z,99616.41
2019-03-29T15:38:33.065Z,99608.00
2019-03-29T15:41:05.828Z,99603.82
2019-03-29T15:43:38.736Z,99602.52
2019-03-29T15:46:11.566Z,99608.88
2019-03-29T15:48:44.388Z,99607.08
2019-03-29T15:51:17.259Z,99604.45
2019-03-29T15:53:50.060Z,99608.09
2019-03-29T15:56:22.897Z,99607.76
2019-03-29T15:58:55.685Z,99610.02
2019-03-29T16:01:28.482Z,99601.12
2019-03-29T16:04:01.558Z,99599.02
2019-03-29T16:06:34.454Z,99601.62
2019-03-29T16:09:08.713Z,99597.34
2019-03-29T16:11:41.497Z,99594.60
2019-03-29T16:14:14.275Z,99594.80
2019-03-29T16:16:47.073Z,99592.47
2019-03-29T16:19:19.896Z,99591.69
2019-03-29T16:21:52.655Z,99588.73
2019-03-29T16:24:25.529Z,99585.42
2019-03-29T16:26:58.336Z,99589.05
2019-03-29T16:29:31.437Z,99583.62
2019-03-29T16:32:04.252Z,99581.27
2019-03-29T16:34:37.228Z,99586.59
2019-03-29T16:37:10.075Z,99579.82
2019-03-29T16:39:42.892Z,99578.69
2019-03-29T16:42:15.689Z,99578.14
2019-03-29T16:44:48.702Z,99572.34
2019-03-29T16:47:21.513Z,99568.27
2019-03-29T16:49:54.301Z,99567.00
2019-03-29T16:52:27.083Z,99569.55
2019-03-29T16:55:12.553Z,99569.08
2019-03-29T16:57:34.421Z,99574.11
2019-03-29T17:00:12.401Z,99570.93
2019-03-29T17:02:44.825Z,99575.64
2019-03-29T17:05:17.648Z,99574.23
2019-03-29T17:07:50.548Z,99575.73
2019-03-29T17:10:23.349Z,99580.92
2019-03-29T17:12:56.134Z,99576.81
2019-03-29T17:15:29.365Z,99575.69
2019-03-29T17:18:02.172Z,99576.30
2019-03-29T17:20:55.078Z,99572.08
2019-03-29T17:24:16.550Z,99574.44
2019-03-29T17:27:07.303Z,99583.45
2019-03-29T17:30:15.623Z,99582.72
2019-03-29T17:33:30.552Z,99579.77
2019-03-29T17:36:00.370Z,99579.41
2019-03-29T17:38:33.217Z,99582.17
2019-03-29T17:41:06.039Z,99586.66
2019-03-29T17:43:38.886Z,99590.73
2019-03-29T17:46:16.510Z,99587.70
2019-03-29T17:48:46.739Z,99586.45
2019-03-29T17:51:19.602Z,99587.36
2019-03-29T17:53:52.518Z,99582.96
2019-03-29T17:56:25.369Z,99587.91
2019-03-29T17:58:58.136Z,99590.52
2019-03-29T18:01:31.208Z,99582.61
2019-03-29T18:04:04.094Z,99583.04
2019-03-29T18:06:36.942Z,99585.26
2019-03-29T18:09:10.310Z,99580.44
2019-03-29T18:11:43.127Z,99589.34
2019-03-29T18:14:15.928Z,99587.16
2019-03-29T18:16:48.814Z,99591.17
2019-03-29T18:19:21.964Z,99590.73
2019-03-29T18:21:54.779Z,99591.24
2019-03-29T18:24:27.564Z,99586.89
2019-03-29T18:27:01.177Z,99590.00
2019-03-29T18:29:34.009Z,99591.36
2019-03-29T18:32:06.806Z,99587.43
2019-03-29T18:34:41.743Z,99590.19
2019-03-29T18:37:16.101Z,99584.58
2019-03-29T18:39:48.943Z,99585.08
2019-03-29T18:42:21.781Z,99590.83
2019-03-29T18:44:54.634Z,99590.40
2019-03-29T18:47:27.657Z,99587.83
2019-03-29T18:50:00.523Z,99589.15
2019-03-29T18:52:33.454Z,99591.83
2019-03-29T18:55:06.461Z,99590.18
2019-03-29T18:57:39.320Z,99598.14
2019-03-29T19:00:12.335Z,99594.21
2019-03-29T19:02:45.160Z,99596.49
2019-03-29T19:05:26.387Z,99590.37
2019-03-29T19:07:59.244Z,99584.73
2019-03-29T19:10:32.168Z,99583.52
2019-03-29T19:13:05.077Z,99585.79
2019-03-29T19:15:37.913Z,99582.72
2019-03-29T19:18:10.699Z,99575.16
2019-03-29T19:20:43.530Z,99576.55
2019-03-29T19:23:16.328Z,99573.08
2019-03-29T19:25:49.153Z,99577.89
2019-03-29T19:28:22.085Z,99573.11
2019-03-29T19:30:54.902Z,99575.32
2019-03-29T19:33:27.730Z,99579.77
2019-03-29T19:36:01.156Z,99566.23
2019-03-29T19:38:34.330Z,99565.83
2019-03-29T19:41:07.313Z,99569.00
2019-03-29T19:43:40.172Z,99569.92
2019-03-29T19:46:13.105Z,99565.16
2019-03-29T19:48:45.967Z,99570.95
2019-03-29T19:51:18.866Z,99567.12
2019-03-29T19:53:51.696Z,99568.06
2019-03-29T19:56:24.592Z,99566.37
2019-03-29T19:58:57.408Z,99566.45
2019-03-29T20:01:30.899Z,99557.67
2019-03-29T20:04:03.753Z,99555.98
2019-03-29T20:06:36.512Z,99563.46
2019-03-29T20:09:11.090Z,99560.85
2019-03-29T20:11:43.886Z,99552.96
2019-03-29T20:14:16.662Z,99555.14
2019-03-29T20:16:49.519Z,99554.27
2019-03-29T20:19:22.373Z,99560.01
2019-03-29T20:21:55.162Z,99559.17
2019-03-29T20:24:27.994Z,99559.22
2019-03-29T20:27:01.148Z,99546.03
2019-03-29T20:29:33.955Z,99547.44
2019-03-29T20:32:06.859Z,99546.14
2019-03-29T20:34:39.771Z,99543.95
2019-03-29T20:37:12.567Z,99543.09
2019-03-29T20:39:45.455Z,99543.58
2019-03-29T20:42:18.206Z,99540.97
2019-03-29T20:44:51.117Z,99540.53
2019-03-29T20:47:23.932Z,99536.20
2019-03-29T20:49:56.727Z,99534.45
2019-03-29T20:52:29.546Z,99538.42
2019-03-29T20:55:02.342Z,99531.88
2019-03-29T20:57:35.247Z,99531.06
2019-03-29T21:00:10.771Z,99521.89
2019-03-29T21:02:43.742Z,99532.91
2019-03-29T21:05:16.570Z,99527.69
2019-03-29T21:07:49.402Z,99529.94
2019-03-29T21:10:22.172Z,99525.59
2019-03-29T21:12:55.045Z,99531.34
2019-03-29T21:15:27.931Z,99530.95
2019-03-29T21:18:00.831Z,99530.56
2019-03-29T21:20:33.730Z,99536.78
2019-03-29T21:23:06.539Z,99535.50
2019-03-29T21:25:39.303Z,99531.16
2019-03-29T21:28:13.599Z,99526.84
2019-03-29T21:30:46.519Z,99528.20
2019-03-29T21:33:19.397Z,99527.38
2019-03-29T21:35:52.419Z,99523.03
2019-03-29T21:38:25.227Z,99523.06
2019-03-29T21:40:58.071Z,99520.90
2019-03-29T21:43:31.533Z,99516.55
2019-03-29T21:46:04.433Z,99509.57
2019-03-29T21:48:37.207Z,99510.45
2019-03-29T21:51:10.056Z,99507.38
2019-03-29T21:53:43.979Z,99513.98
2019-03-29T21:56:16.977Z,99505.70
2019-03-29T21:58:49.717Z,99507.50
2019-03-29T22:01:22.485Z,99509.75
2019-03-29T22:03:55.241Z,99514.15
2019-03-29T22:06:28.121Z,99510.68
2019-03-29T22:09:00.931Z,99508.05
2019-03-29T22:11:33.672Z,99502.83
2019-03-29T22:14:06.472Z,99506.38
2019-03-29T22:16:39.308Z,99504.63
2019-03-29T22:19:12.234Z,99505.55
2019-03-29T22:21:45.090Z,99498.99
2019-03-29T22:24:17.988Z,99499.05
2019-03-29T22:26:51.266Z,99497.30
2019-03-29T22:29:24.097Z,99499.53
2019-03-29T22:31:56.913Z,99499.53
2019-03-29T22:34:29.755Z,99496.92
2019-03-29T22:37:02.637Z,99497.37
2019-03-29T22:39:35.450Z,99490.84
2019-03-29T22:42:08.248Z,99488.65
2019-03-29T22:44:41.120Z,99488.22
2019-03-29T22:47:13.946Z,99490.43
2019-03-29T22:49:46.770Z,99488.69
2019-03-29T22:52:19.531Z,99488.27
2019-03-29T22:54:52.357Z,99489.59
2019-03-29T22:57:25.103Z,99486.09
2019-03-29T22:59:58.022Z,99490.94
2019-03-29T23:02:31.175Z,99488.33
2019-03-29T23:05:04.191Z,99490.06
2019-03-29T23:07:36.959Z,99491.81
2019-03-29T23:10:10.333Z,99487.42
2019-03-29T23:12:43.256Z,99483.52
2019-03-29T23:15:16.549Z,99484.84
2019-03-29T23:17:49.388Z,99485.70
2019-03-29T23:20:22.239Z,99482.22
2019-03-29T23:22:55.084Z,99483.09
2019-03-29T23:25:27.892Z,99480.93
2019-03-29T23:28:00.994Z,99475.67
2019-03-29T23:30:33.840Z,99476.14
2019-03-29T23:33:06.653Z,99472.19
2019-03-29T23:35:39.453Z,99469.13
2019-03-29T23:38:12.222Z,99461.70
2019-03-29T23:40:45.023Z,99463.45
2019-03-29T23:43:17.872Z,99463.90
2019-03-29T23:45:51.198Z,99460.41
2019-03-29T23:48:23.968Z,99461.29
2019-03-29T23:50:56.774Z,99458.23
2019-03-29T23:53:29.534Z,99458.26
2019-03-29T23:56:02.341Z,99453.44
2019-03-29T23:58:35.239Z,99451.70
